Archival Weather

Randolph Afb

Universal City, Texas (KRND)

Report from: Monday, September 26, 2022 4:55 PM CDT
Current time: Saturday, February 4, 2023 10:35 PM CST

Current weather
Weather history
Weather forecast

Temperature34.5°C (94.1°F)
Heat index32.3°C (90.1°F)
Dew point6.7°C (44.1°F)
Winds 10 kts (5.1 m/s, 11.5 mph) Northeast (40°)
Visibility10 mi. (16.1 km)
Clouds Sky clear
Altimeter29.96 in.Hg (1015 mB)
Relative humidity18 %
Density altitude2,317 ft. (706 m)
Sea-level pressure101.4 kPa (1014 mB, 29.93 in.Hg)
Remarks Fully automated report
Automated weather observing station with precipitation discriminator
Flight conditions Visual Meteorological Conditions
Raw dataKRND 262155Z AUTO 04010KT 10SM CLR 35/07 A2996 RMK AO2 SLP136 T03450067
An unhandled exception has occurred. See browser dev tools for details. Reload 🗙